Time;durP1;ratioP1;P1;durP2;ratioP2;P2;SDS_P1;SDS_P2;PMS_P1;PMS_P2;Temp;Humidity;BMP_temperature;BMP_pressure;BME280_temperature;BME280_humidity;BME280_pressure;Samples;Min_cycle;Max_cycle;Signal;HPM_P1;HPM_P2
2022/10/07 00:01:33;;;;;;;7.80;3.60;;;15.30;93.70;;;;;;4919233;29;20518;-73
2022/10/07 00:03:59;;;;;;;5.93;3.20;;;15.30;93.70;;;;;;4934289;29;20843;-73
2022/10/07 00:06:28;;;;;;;6.07;3.73;;;15.30;93.70;;;;;;4936233;29;20939;-73
2022/10/07 00:08:54;;;;;;;3.87;2.90;;;15.30;94.10;;;;;;4934416;29;20487;-73
2022/10/07 00:11:26;;;;;;;7.20;3.53;;;15.30;93.70;;;;;;4947440;29;20437;-73
2022/10/07 00:13:55;;;;;;;4.57;2.70;;;15.30;93.70;;;;;;4931456;29;20470;-73
2022/10/07 00:16:29;;;;;;;6.23;3.60;;;15.20;93.70;;;;;;4915808;29;20447;-73
2022/10/07 00:19:04;;;;;;;6.50;3.33;;;15.20;93.70;;;;;;4920995;29;20417;-73
2022/10/07 00:21:37;;;;;;;7.00;3.50;;;15.20;93.70;;;;;;4927893;29;20436;-73
2022/10/07 00:24:04;;;;;;;4.13;3.33;;;15.20;93.70;;;;;;4906209;29;20442;-73
2022/10/07 00:26:39;;;;;;;5.73;2.70;;;15.20;93.70;;;;;;4934699;29;20479;-73
2022/10/07 00:29:08;;;;;;;5.90;3.67;;;15.20;93.70;;;;;;4928489;29;20436;-73
2022/10/07 00:31:36;;;;;;;6.80;3.20;;;15.20;93.70;;;;;;4906146;29;20425;-73
2022/10/07 00:34:04;;;;;;;6.50;3.33;;;15.20;93.70;;;;;;4928792;29;20569;-73
2022/10/07 00:36:33;;;;;;;5.27;3.20;;;15.20;93.70;;;;;;4917826;29;20968;-73
2022/10/07 00:39:02;;;;;;;8.13;3.47;;;15.10;93.70;;;;;;4934210;29;20849;-73
2022/10/07 00:41:35;;;;;;;5.30;3.13;;;15.20;93.70;;;;;;4933130;29;20440;-73
2022/10/07 00:44:35;;;;;;;5.73;3.03;;;15.10;93.70;;;;;;4918520;29;20429;-73
2022/10/07 00:47:35;;;;;;;5.33;3.07;;;15.10;93.70;;;;;;4918148;29;20459;-73
2022/10/07 00:50:16;;;;;;;5.20;2.90;;;15.10;93.70;;;;;;4918826;29;20645;-73
2022/10/07 00:52:50;;;;;;;5.60;3.33;;;15.10;93.70;;;;;;4917422;29;20483;-73
2022/10/07 00:55:20;;;;;;;7.13;4.43;;;15.10;93.70;;;;;;4933754;29;20467;-72
2022/10/07 00:57:47;;;;;;;5.63;3.50;;;15.10;93.70;;;;;;4918602;29;20456;-72
2022/10/07 01:00:14;;;;;;;7.07;3.63;;;15.00;93.70;;;;;;4922544;29;20449;-72
2022/10/07 01:02:41;;;;;;;6.17;3.80;;;15.10;93.70;;;;;;4903478;29;20434;-72
2022/10/07 01:05:09;;;;;;;5.60;3.87;;;15.00;93.70;;;;;;4902821;29;20934;-72
2022/10/07 01:07:37;;;;;;;6.30;3.40;;;15.00;93.70;;;;;;4916584;29;20462;-72
2022/10/07 01:10:14;;;;;;;4.27;2.97;;;15.00;93.70;;;;;;4923828;29;21027;-72
2022/10/07 01:13:13;;;;;;;5.23;3.67;;;15.00;93.70;;;;;;4934208;29;20813;-72
2022/10/07 01:15:58;;;;;;;5.80;3.53;;;15.00;93.70;;;;;;4917975;29;20443;-72
2022/10/07 01:18:54;;;;;;;7.80;3.40;;;15.00;93.70;;;;;;4934212;29;20974;-72
2022/10/07 01:21:53;;;;;;;6.70;4.10;;;15.00;93.80;;;;;;4894320;29;20428;-72
2022/10/07 01:24:35;;;;;;;5.43;3.40;;;15.00;93.80;;;;;;4915214;29;20834;-72
2022/10/07 01:27:20;;;;;;;5.60;3.20;;;15.00;93.90;;;;;;4899680;29;20449;-72
2022/10/07 01:29:56;;;;;;;8.00;3.60;;;14.90;93.80;;;;;;4911172;29;20432;-72
2022/10/07 01:32:30;;;;;;;6.23;3.33;;;14.90;93.80;;;;;;4916634;29;20441;-72
2022/10/07 01:35:01;;;;;;;8.00;3.70;;;14.90;93.90;;;;;;4884132;29;20838;-72
2022/10/07 01:37:36;;;;;;;5.03;3.00;;;14.90;93.90;;;;;;4914976;29;20870;-72
2022/10/07 01:40:08;;;;;;;4.33;3.30;;;14.90;93.90;;;;;;4905167;29;20511;-73
2022/10/07 01:42:36;;;;;;;5.03;3.23;;;14.90;93.90;;;;;;4934157;29;20964;-72
2022/10/07 01:45:13;;;;;;;8.33;3.83;;;14.90;94.00;;;;;;4937765;29;20408;-72
2022/10/07 01:47:39;;;;;;;11.43;3.43;;;14.90;94.00;;;;;;4921514;29;20460;-72
2022/10/07 01:50:11;;;;;;;6.23;3.50;;;14.90;94.00;;;;;;4937592;29;20557;-72
2022/10/07 01:52:49;;;;;;;6.50;3.10;;;14.80;93.90;;;;;;4918461;29;20441;-72
2022/10/07 01:55:53;;;;;;;7.17;3.30;;;14.80;94.00;;;;;;4918238;29;21055;-72
2022/10/07 01:58:39;;;;;;;4.73;3.03;;;14.80;94.00;;;;;;4927329;29;21011;-72
2022/10/07 02:01:34;;;;;;;4.53;2.93;;;14.80;94.00;;;;;;4937639;29;20435;-72
2022/10/07 02:04:19;;;;;;;4.20;3.50;;;14.80;94.00;;;;;;4918605;29;20967;-72
2022/10/07 02:06:45;;;;;;;6.60;3.07;;;14.80;94.00;;;;;;4918322;29;20435;-72
2022/10/07 02:09:34;;;;;;;5.17;3.00;;;14.80;94.10;;;;;;4932933;29;20434;-72
2022/10/07 02:12:09;;;;;;;8.17;2.93;;;14.80;94.10;;;;;;4936574;29;20933;-72
2022/10/07 02:14:43;;;;;;;5.10;3.30;;;14.80;94.10;;;;;;4921110;29;20491;-72
2022/10/07 02:17:15;;;;;;;7.50;2.90;;;14.70;94.10;;;;;;4936998;29;20436;-72
2022/10/07 02:19:48;;;;;;;4.70;2.60;;;14.70;94.10;;;;;;4919426;29;20460;-72
2022/10/07 02:22:17;;;;;;;5.60;2.93;;;14.70;94.10;;;;;;4913275;29;20455;-72
2022/10/07 02:24:46;;;;;;;5.27;3.00;;;14.70;94.10;;;;;;4918012;29;20494;-72
2022/10/07 02:27:17;;;;;;;4.53;3.00;;;14.70;94.10;;;;;;4918147;29;20874;-72
2022/10/07 02:29:52;;;;;;;6.03;3.10;;;14.70;94.40;;;;;;4925806;29;20846;-72
2022/10/07 02:32:23;;;;;;;4.87;3.10;;;14.70;94.50;;;;;;4936366;29;20421;-72
2022/10/07 02:34:56;;;;;;;4.30;2.87;;;14.70;94.10;;;;;;4901843;29;20488;-72
2022/10/07 02:37:26;;;;;;;5.57;3.20;;;14.70;94.10;;;;;;4921658;29;20459;-72
2022/10/07 02:39:58;;;;;;;5.40;3.27;;;14.70;94.20;;;;;;4936538;29;20451;-72
2022/10/07 02:42:32;;;;;;;7.10;2.90;;;14.70;94.20;;;;;;4917794;29;20877;-72
2022/10/07 02:45:12;;;;;;;3.17;2.57;;;14.70;94.20;;;;;;4917692;29;20470;-72
2022/10/07 02:47:43;;;;;;;7.27;3.43;;;14.70;94.20;;;;;;4933160;29;20448;-72
2022/10/07 02:50:13;;;;;;;7.50;3.70;;;14.70;94.20;;;;;;4918874;29;20452;-72
2022/10/07 02:52:42;;;;;;;6.63;2.90;;;14.60;94.20;;;;;;4935295;29;20440;-72
2022/10/07 02:55:11;;;;;;;5.70;3.33;;;14.60;94.20;;;;;;4918193;29;20521;-72
2022/10/07 02:57:51;;;;;;;4.53;2.73;;;14.60;94.20;;;;;;4908080;29;20448;-72
2022/10/07 03:00:21;;;;;;;8.13;2.87;;;14.60;94.20;;;;;;4924805;29;20495;-72
2022/10/07 03:03:03;;;;;;;5.63;2.97;;;14.60;94.30;;;;;;4918247;29;20824;-72
2022/10/07 03:05:39;;;;;;;4.47;2.57;;;14.60;94.30;;;;;;4902720;29;20810;-72
2022/10/07 03:08:08;;;;;;;6.13;3.07;;;14.60;94.30;;;;;;4927396;29;20448;-72
2022/10/07 03:10:39;;;;;;;4.90;2.90;;;14.60;94.30;;;;;;4907666;29;20432;-72
2022/10/07 03:13:09;;;;;;;10.90;3.23;;;14.60;94.30;;;;;;4919360;29;20958;-72
2022/10/07 03:15:39;;;;;;;4.93;2.80;;;14.60;94.30;;;;;;4920464;29;20465;-72
2022/10/07 03:18:24;;;;;;;6.57;3.00;;;14.60;94.30;;;;;;4935693;29;20506;-72
2022/10/07 03:20:54;;;;;;;4.93;2.40;;;14.60;94.30;;;;;;4905726;29;20430;-72
2022/10/07 03:23:25;;;;;;;10.40;3.20;;;14.50;94.30;;;;;;4928435;29;20456;-72
2022/10/07 03:25:53;;;;;;;5.47;3.37;;;14.50;94.30;;;;;;4919246;29;20470;-72
2022/10/07 03:28:24;;;;;;;6.83;2.60;;;14.50;94.30;;;;;;4915964;29;20433;-72
2022/10/07 03:30:50;;;;;;;4.80;2.53;;;14.50;94.30;;;;;;4934915;29;20446;-72
2022/10/07 03:33:18;;;;;;;10.37;3.10;;;14.50;94.30;;;;;;4935897;29;20410;-72
2022/10/07 03:35:44;;;;;;;4.33;2.63;;;14.50;94.30;;;;;;4935667;29;20802;-72
2022/10/07 03:38:13;;;;;;;3.47;2.20;;;14.50;94.30;;;;;;4933979;29;20504;-72
2022/10/07 03:40:43;;;;;;;6.63;3.27;;;14.50;94.30;;;;;;4919627;29;20952;-72
2022/10/07 03:43:09;;;;;;;3.90;2.77;;;14.50;94.30;;;;;;4934414;29;20443;-72
2022/10/07 03:45:42;;;;;;;7.43;2.83;;;14.50;94.30;;;;;;4935357;29;20421;-72
2022/10/07 03:48:08;;;;;;;6.00;3.00;;;14.50;94.30;;;;;;4950789;29;20478;-72
2022/10/07 03:50:40;;;;;;;3.73;2.70;;;14.50;94.30;;;;;;4919718;29;20451;-72
2022/10/07 03:53:07;;;;;;;5.10;2.60;;;14.50;94.30;;;;;;4906056;29;20528;-72
2022/10/07 03:55:35;;;;;;;6.10;3.20;;;14.50;94.30;;;;;;4935473;29;20410;-73
2022/10/07 03:58:03;;;;;;;4.17;2.80;;;14.40;94.30;;;;;;4903231;29;20508;-72
2022/10/07 04:00:31;;;;;;;3.53;2.40;;;14.40;94.30;;;;;;4916421;29;20947;-72
2022/10/07 04:03:00;;;;;;;5.77;3.43;;;14.40;94.30;;;;;;4904491;29;21036;-72
2022/10/07 04:05:27;;;;;;;7.30;3.17;;;14.40;94.30;;;;;;4919336;29;20441;-72
2022/10/07 04:07:54;;;;;;;6.80;2.60;;;14.40;94.30;;;;;;4910365;29;20537;-72
2022/10/07 04:10:20;;;;;;;3.53;2.50;;;14.40;94.30;;;;;;4941324;29;20486;-72
2022/10/07 04:12:53;;;;;;;5.20;2.60;;;14.40;94.30;;;;;;4920856;29;20435;-72
2022/10/07 04:15:22;;;;;;;4.80;2.80;;;14.40;94.30;;;;;;4934798;29;20869;-72
2022/10/07 04:17:57;;;;;;;6.33;2.70;;;14.40;94.30;;;;;;4919359;29;20436;-72
2022/10/07 04:20:25;;;;;;;4.60;2.60;;;14.40;94.30;;;;;;4919060;29;20418;-72
2022/10/07 04:22:54;;;;;;;8.03;3.00;;;14.40;94.30;;;;;;4933831;29;20414;-72
2022/10/07 04:25:33;;;;;;;3.07;2.40;;;14.40;94.30;;;;;;4916010;29;20496;-72
2022/10/07 04:28:14;;;;;;;6.37;2.97;;;14.30;94.20;;;;;;4900481;29;20456;-72
2022/10/07 04:30:42;;;;;;;5.87;2.70;;;14.30;94.20;;;;;;4915714;29;20973;-72
2022/10/07 04:33:11;;;;;;;6.23;2.33;;;14.30;94.20;;;;;;4916625;29;20939;-72
2022/10/07 04:35:38;;;;;;;5.17;2.53;;;14.30;94.30;;;;;;4911790;29;20503;-72
2022/10/07 04:38:08;;;;;;;2.60;2.20;;;14.30;94.30;;;;;;4914205;29;20533;-73
2022/10/07 04:40:41;;;;;;;5.90;3.07;;;14.30;94.30;;;;;;4902759;29;20461;-75
2022/10/07 04:43:19;;;;;;;5.30;2.17;;;14.30;94.30;;;;;;4884018;29;20945;-75
2022/10/07 04:45:51;;;;;;;4.47;2.43;;;14.30;94.30;;;;;;4915840;29;20446;-74
2022/10/07 04:48:19;;;;;;;4.00;2.70;;;14.30;94.30;;;;;;4925786;29;20431;-72
2022/10/07 04:50:45;;;;;;;6.87;2.80;;;14.30;94.30;;;;;;4934704;29;20531;-72
2022/10/07 04:53:18;;;;;;;6.03;2.67;;;14.30;94.30;;;;;;4908967;29;20431;-72
2022/10/07 04:55:47;;;;;;;3.23;2.30;;;14.20;94.30;;;;;;4915734;29;20527;-72
2022/10/07 04:58:18;;;;;;;4.37;2.97;;;14.30;94.30;;;;;;4884630;29;20907;-72
2022/10/07 05:00:49;;;;;;;3.40;2.50;;;14.20;94.30;;;;;;4915480;29;20504;-72
2022/10/07 05:03:24;;;;;;;4.60;2.93;;;14.20;94.60;;;;;;4915789;29;20404;-72
2022/10/07 05:05:55;;;;;;;8.13;3.00;;;14.20;94.30;;;;;;4899986;29;20795;-72
2022/10/07 05:08:26;;;;;;;4.77;2.60;;;14.20;94.30;;;;;;4910788;29;20452;-72
2022/10/07 05:11:00;;;;;;;3.90;2.40;;;14.20;94.30;;;;;;4915634;29;20396;-73
2022/10/07 05:13:33;;;;;;;3.57;2.07;;;14.20;94.30;;;;;;4895969;29;21008;-72
2022/10/07 05:16:03;;;;;;;4.73;2.73;;;14.20;94.30;;;;;;4925677;29;20479;-72
2022/10/07 05:18:32;;;;;;;5.07;2.70;;;14.20;94.30;;;;;;4919577;29;20428;-72
2022/10/07 05:21:06;;;;;;;5.57;2.70;;;14.20;94.30;;;;;;4922220;29;20426;-72
2022/10/07 05:23:36;;;;;;;5.87;2.50;;;14.20;94.30;;;;;;4913318;29;20968;-72
2022/10/07 05:26:09;;;;;;;5.53;2.60;;;14.20;94.30;;;;;;4921411;29;20559;-72
2022/10/07 05:28:39;;;;;;;3.20;2.90;;;14.10;94.30;;;;;;4911404;29;20557;-72
2022/10/07 05:31:14;;;;;;;5.03;2.93;;;14.10;94.30;;;;;;4921314;29;20444;-72
2022/10/07 05:33:48;;;;;;;3.50;2.40;;;14.10;94.30;;;;;;4935248;29;20474;-72
2022/10/07 05:36:18;;;;;;;4.67;2.30;;;14.10;94.30;;;;;;4907196;29;20460;-72
2022/10/07 05:38:44;;;;;;;6.20;3.00;;;14.10;94.30;;;;;;4935158;29;20465;-72
2022/10/07 05:41:11;;;;;;;5.77;2.53;;;14.10;94.30;;;;;;4924225;29;20420;-72
2022/10/07 05:43:42;;;;;;;5.20;2.40;;;14.10;94.30;;;;;;4918149;29;20428;-72
2022/10/07 05:46:15;;;;;;;5.90;2.50;;;14.10;94.30;;;;;;4940244;29;20448;-72
2022/10/07 05:48:50;;;;;;;2.97;2.20;;;14.10;94.30;;;;;;4941700;29;20419;-72
2022/10/07 05:51:23;;;;;;;4.30;2.27;;;14.00;94.30;;;;;;4939588;29;20423;-72
2022/10/07 05:53:54;;;;;;;4.47;2.30;;;14.00;94.30;;;;;;4956505;28;20542;-72
2022/10/07 05:56:24;;;;;;;3.10;2.10;;;14.00;94.30;;;;;;4924740;29;20453;-72
2022/10/07 05:58:54;;;;;;;4.93;2.23;;;14.00;94.30;;;;;;4924609;29;20407;-72
2022/10/07 06:01:23;;;;;;;3.20;2.57;;;14.00;94.30;;;;;;4940072;29;20428;-72
2022/10/07 06:03:54;;;;;;;5.00;2.57;;;14.00;94.30;;;;;;4940627;29;20915;-72
2022/10/07 06:06:23;;;;;;;4.93;2.77;;;14.00;94.30;;;;;;4924595;29;20454;-72
2022/10/07 06:08:53;;;;;;;4.47;2.67;;;14.00;94.40;;;;;;4939334;29;20469;-72
2022/10/07 06:14:06;;;;;;;5.13;3.20;;;14.00;94.40;;;;;;4917122;29;20459;-72
2022/10/07 06:16:35;;;;;;;5.27;2.90;;;14.00;94.40;;;;;;4938603;29;20436;-72
2022/10/07 06:19:21;;;;;;;3.70;2.70;;;14.00;94.40;;;;;;4940057;29;20549;-72
2022/10/07 06:21:51;;;;;;;4.67;2.67;;;14.00;94.40;;;;;;4938638;29;20414;-72
2022/10/07 06:24:18;;;;;;;6.03;3.17;;;14.00;94.40;;;;;;4929826;29;20454;-72
2022/10/07 06:26:44;;;;;;;5.03;2.80;;;13.90;94.30;;;;;;4905197;29;20536;-71
2022/10/07 06:29:15;;;;;;;5.17;2.30;;;13.90;94.40;;;;;;4902522;29;20436;-72
2022/10/07 06:31:45;;;;;;;5.53;3.40;;;13.90;94.40;;;;;;4901303;29;20441;-72
2022/10/07 06:34:11;;;;;;;4.97;2.70;;;13.90;94.40;;;;;;4901277;29;20489;-72
2022/10/07 06:36:42;;;;;;;3.87;2.63;;;13.90;94.40;;;;;;4917385;29;20448;-72
2022/10/07 06:39:10;;;;;;;3.93;2.30;;;13.90;94.40;;;;;;4919808;29;20556;-72
2022/10/07 06:41:43;;;;;;;4.17;3.03;;;13.90;94.40;;;;;;4937154;29;20772;-72
2022/10/07 06:44:37;;;;;;;3.70;2.50;;;13.90;94.40;;;;;;4919553;29;20514;-72
2022/10/07 06:47:10;;;;;;;3.43;2.60;;;13.90;94.40;;;;;;4918124;29;20439;-74
2022/10/07 06:49:36;;;;;;;4.60;2.70;;;13.90;94.40;;;;;;4918126;29;20476;-72
2022/10/07 06:52:02;;;;;;;3.47;2.57;;;13.90;94.50;;;;;;4919007;29;20516;-72
2022/10/07 06:54:29;;;;;;;3.47;2.50;;;13.90;94.50;;;;;;4912055;29;20528;-73
2022/10/07 06:56:56;;;;;;;3.90;2.30;;;13.90;94.50;;;;;;4931822;29;20449;-73
2022/10/07 06:59:24;;;;;;;4.30;2.83;;;13.90;94.50;;;;;;4935817;29;20458;-72
2022/10/07 07:01:59;;;;;;;6.03;3.13;;;13.80;94.50;;;;;;4920917;29;20433;-72
2022/10/07 07:04:26;;;;;;;3.50;2.73;;;13.80;94.50;;;;;;4908786;29;20800;-72
2022/10/07 07:06:52;;;;;;;3.83;2.43;;;13.90;94.60;;;;;;4917290;29;20440;-72
2022/10/07 07:09:22;;;;;;;7.27;2.60;;;13.80;94.50;;;;;;4901344;29;20441;-72
2022/10/07 07:11:52;;;;;;;3.60;2.50;;;13.80;94.50;;;;;;4900743;29;20416;-72
2022/10/07 07:14:54;;;;;;;6.13;3.23;;;13.80;94.50;;;;;;4911267;29;20544;-72
2022/10/07 07:17:21;;;;;;;5.40;2.60;;;13.80;94.50;;;;;;4901117;29;20461;-72
2022/10/07 07:19:46;;;;;;;5.20;3.07;;;13.80;94.50;;;;;;4916823;29;20831;-74
2022/10/07 07:22:13;;;;;;;4.47;2.73;;;13.80;94.50;;;;;;4901598;29;20426;-72
2022/10/07 07:24:48;;;;;;;4.50;3.00;;;13.80;94.60;;;;;;4916702;29;20778;-72
2022/10/07 07:27:26;;;;;;;5.57;3.10;;;13.80;94.60;;;;;;4894603;29;20448;-72
2022/10/07 07:30:14;;;;;;;4.17;2.83;;;13.80;94.50;;;;;;4916164;29;20852;-72
2022/10/07 07:32:45;;;;;;;4.27;2.63;;;13.80;94.60;;;;;;4916402;29;20409;-72
2022/10/07 07:35:16;;;;;;;3.70;2.20;;;13.80;94.60;;;;;;4931728;29;20818;-72
2022/10/07 07:37:42;;;;;;;2.93;2.33;;;13.80;94.60;;;;;;4916232;29;20450;-72
2022/10/07 07:40:08;;;;;;;4.97;2.30;;;13.80;94.50;;;;;;4900674;29;20439;-72
2022/10/07 07:42:37;;;;;;;6.33;3.20;;;13.80;94.60;;;;;;4946753;28;20422;-72
2022/10/07 07:45:07;;;;;;;4.70;2.60;;;13.80;94.60;;;;;;4919480;29;20427;-72
2022/10/07 07:47:34;;;;;;;6.10;2.70;;;13.80;94.60;;;;;;4935033;29;20579;-72
2022/10/07 07:50:02;;;;;;;5.37;2.87;;;13.80;94.60;;;;;;4934509;29;20408;-72
2022/10/07 07:52:32;;;;;;;5.43;3.00;;;13.80;94.60;;;;;;4935075;29;20406;-73
2022/10/07 07:55:01;;;;;;;4.27;2.77;;;13.80;94.60;;;;;;4934487;29;20587;-72
2022/10/07 07:57:33;;;;;;;5.40;3.10;;;13.80;94.60;;;;;;4934759;29;20805;-72
2022/10/07 08:00:06;;;;;;;4.70;2.93;;;13.80;94.60;;;;;;4934770;29;20960;-72
2022/10/07 08:02:40;;;;;;;6.00;3.40;;;13.80;94.60;;;;;;4916025;29;20983;-72
2022/10/07 08:05:09;;;;;;;6.17;2.70;;;13.80;94.60;;;;;;4916466;29;20972;-72
2022/10/07 08:07:35;;;;;;;7.67;3.17;;;13.80;94.60;;;;;;4919305;29;20448;-72
2022/10/07 08:10:07;;;;;;;8.50;3.47;;;13.80;94.60;;;;;;4918953;29;20427;-72
2022/10/07 08:12:34;;;;;;;9.50;2.87;;;13.80;94.70;;;;;;4948332;29;20432;-72
2022/10/07 08:15:00;;;;;;;4.83;2.50;;;13.80;94.70;;;;;;4899937;29;20566;-72
2022/10/07 08:17:26;;;;;;;4.10;2.80;;;13.80;94.70;;;;;;4899969;29;20878;-72
2022/10/07 08:19:54;;;;;;;4.03;2.23;;;13.80;94.70;;;;;;4915506;29;20442;-73
2022/10/07 08:22:22;;;;;;;5.40;3.10;;;13.80;94.70;;;;;;4915552;29;20417;-73
2022/10/07 08:24:50;;;;;;;3.80;2.73;;;13.80;94.70;;;;;;4899825;29;20436;-72
2022/10/07 08:27:23;;;;;;;4.37;3.20;;;13.90;94.70;;;;;;4915944;29;20824;-72
2022/10/07 08:29:50;;;;;;;5.73;2.80;;;13.80;94.70;;;;;;4915527;29;20436;-72
2022/10/07 08:32:16;;;;;;;5.50;3.27;;;13.80;94.70;;;;;;4899921;29;20921;-72
2022/10/07 08:34:44;;;;;;;4.60;3.20;;;13.90;94.70;;;;;;4915303;29;20509;-73
2022/10/07 08:37:11;;;;;;;6.90;3.33;;;13.90;94.80;;;;;;4916183;29;20451;-72
2022/10/07 08:39:55;;;;;;;6.20;3.33;;;13.90;94.80;;;;;;4916866;29;20451;-72
2022/10/07 08:42:37;;;;;;;4.20;3.13;;;13.90;94.80;;;;;;4915097;29;20488;-72
2022/10/07 08:45:07;;;;;;;7.77;2.83;;;13.90;94.80;;;;;;4916419;29;20486;-72
2022/10/07 08:47:43;;;;;;;7.07;2.80;;;13.90;94.80;;;;;;4914915;29;20989;-72
2022/10/07 08:50:29;;;;;;;7.20;3.53;;;14.00;94.90;;;;;;4915239;29;20818;-72
2022/10/07 08:53:03;;;;;;;5.40;3.00;;;14.00;94.80;;;;;;4914757;29;21033;-72
2022/10/07 08:56:03;;;;;;;5.23;2.93;;;14.00;94.80;;;;;;4914882;29;20853;-72
2022/10/07 08:58:47;;;;;;;7.30;2.70;;;14.00;94.70;;;;;;4910968;29;20458;-72
2022/10/07 09:01:36;;;;;;;6.10;2.80;;;14.10;94.70;;;;;;4915053;29;20409;-72
2022/10/07 09:04:30;;;;;;;7.23;3.07;;;14.10;94.70;;;;;;4915307;29;20432;-73
2022/10/07 09:07:10;;;;;;;7.97;3.20;;;14.10;94.80;;;;;;4906994;29;20818;-74
2022/10/07 09:10:05;;;;;;;6.73;2.80;;;14.10;94.80;;;;;;4932063;29;20509;-73
2022/10/07 09:12:46;;;;;;;6.53;2.83;;;14.10;94.70;;;;;;4918869;29;20446;-74
2022/10/07 09:15:43;;;;;;;6.90;3.10;;;14.10;94.80;;;;;;4901402;29;20471;-73
2022/10/07 09:18:52;;;;;;;5.03;2.97;;;14.10;94.80;;;;;;4913329;29;21025;-74
2022/10/07 09:21:27;;;;;;;6.20;2.73;;;14.20;94.80;;;;;;4907808;29;21008;-72
2022/10/07 09:24:14;;;;;;;9.63;3.17;;;14.20;94.80;;;;;;4900147;29;21063;-73
2022/10/07 09:26:40;;;;;;;6.23;3.30;;;14.20;94.80;;;;;;4915232;29;20923;-73
2022/10/07 09:29:09;;;;;;;7.90;4.03;;;14.20;94.80;;;;;;4883944;29;20484;-73
2022/10/07 09:31:38;;;;;;;4.73;3.30;;;14.20;94.80;;;;;;4914293;29;20429;-73
2022/10/07 09:34:12;;;;;;;9.90;3.20;;;14.20;94.80;;;;;;4920614;29;20467;-73
2022/10/07 09:37:06;;;;;;;4.67;3.10;;;14.30;94.80;;;;;;4918469;29;20459;-73
2022/10/07 09:39:40;;;;;;;5.40;2.93;;;14.30;94.80;;;;;;4923297;29;20428;-73
2022/10/07 09:42:19;;;;;;;3.20;2.30;;;14.30;94.90;;;;;;4906438;29;20457;-73
2022/10/07 09:44:54;;;;;;;6.13;2.90;;;14.30;94.90;;;;;;4932761;29;20913;-73
2022/10/07 09:47:27;;;;;;;6.50;3.30;;;14.40;94.80;;;;;;4933044;29;20450;-73
2022/10/07 09:49:58;;;;;;;4.40;2.80;;;14.40;94.80;;;;;;4931513;29;20783;-73
2022/10/07 09:52:31;;;;;;;5.90;2.93;;;14.40;94.90;;;;;;4932814;29;20470;-73
2022/10/07 09:55:31;;;;;;;7.93;3.43;;;14.50;94.90;;;;;;4933355;29;20999;-74
2022/10/07 09:58:02;;;;;;;4.70;2.90;;;14.50;94.90;;;;;;4933342;29;20489;-75
2022/10/07 10:00:29;;;;;;;7.40;3.40;;;14.50;94.90;;;;;;4898526;29;20444;-74
2022/10/07 10:03:06;;;;;;;5.77;2.90;;;14.50;94.80;;;;;;4916664;29;20493;-74
2022/10/07 10:05:35;;;;;;;4.73;3.60;;;14.60;94.90;;;;;;4923100;29;20501;-74
2022/10/07 10:08:12;;;;;;;6.07;2.53;;;14.60;95.00;;;;;;4918809;29;20445;-74
2022/10/07 10:10:37;;;;;;;11.70;3.10;;;14.60;95.00;;;;;;4917454;29;20563;-74
2022/10/07 10:13:27;;;;;;;5.13;3.20;;;14.60;95.00;;;;;;4918694;29;20513;-74
2022/10/07 10:15:56;;;;;;;5.13;2.57;;;14.60;95.00;;;;;;4916075;29;20431;-74
2022/10/07 10:18:30;;;;;;;5.20;2.70;;;14.70;95.00;;;;;;4919189;29;20439;-73
2022/10/07 10:21:13;;;;;;;7.70;3.03;;;14.70;95.00;;;;;;4909753;29;20871;-74
2022/10/07 10:23:52;;;;;;;11.77;2.80;;;14.80;95.00;;;;;;4916598;29;20954;-74
2022/10/07 10:26:24;;;;;;;4.20;2.73;;;14.80;94.90;;;;;;4912616;29;20470;-74
2022/10/07 10:29:20;;;;;;;10.03;2.73;;;14.80;94.90;;;;;;4928099;29;20464;-74
2022/10/07 10:32:03;;;;;;;8.47;3.03;;;14.80;94.90;;;;;;4912965;29;20420;-74
2022/10/07 10:35:01;;;;;;;6.93;2.97;;;14.90;95.00;;;;;;4919528;29;20985;-74
2022/10/07 10:37:39;;;;;;;8.20;3.47;;;14.90;94.90;;;;;;4921425;29;20918;-72
2022/10/07 10:40:08;;;;;;;6.63;2.77;;;14.90;95.00;;;;;;4937484;29;20440;-73
2022/10/07 10:42:50;;;;;;;6.67;3.07;;;14.90;94.90;;;;;;4917476;29;20423;-73
2022/10/07 10:45:38;;;;;;;6.67;2.30;;;14.90;94.90;;;;;;4915654;29;20457;-73
2022/10/07 10:48:32;;;;;;;6.20;2.60;;;15.00;95.00;;;;;;4915690;29;20409;-73
2022/10/07 10:51:54;;;;;;;6.77;2.40;;;15.00;95.00;;;;;;4873691;29;20443;-73
2022/10/07 10:54:30;;;;;;;9.33;2.77;;;15.10;95.10;;;;;;4857761;29;20500;-73
2022/10/07 10:57:17;;;;;;;8.73;2.67;;;15.10;95.10;;;;;;4918388;29;20656;-73
2022/10/07 11:00:03;;;;;;;10.13;2.23;;;15.10;95.10;;;;;;4917204;29;20476;-73
2022/10/07 11:02:41;;;;;;;11.13;2.87;;;15.10;95.00;;;;;;4916872;29;20440;-73
2022/10/07 11:05:22;;;;;;;7.23;2.53;;;15.20;95.00;;;;;;4923631;29;20435;-73
2022/10/07 11:07:58;;;;;;;7.57;2.70;;;15.20;94.90;;;;;;4936822;29;20446;-73
2022/10/07 11:10:25;;;;;;;5.93;2.23;;;15.20;94.90;;;;;;4911061;29;20773;-73
2022/10/07 11:13:20;;;;;;;4.73;2.73;;;15.30;95.00;;;;;;4919559;29;20444;-73
2022/10/07 11:16:00;;;;;;;9.97;2.27;;;15.30;95.00;;;;;;4934967;29;20454;-73
2022/10/07 11:18:47;;;;;;;6.10;2.20;;;15.30;94.90;;;;;;4924319;29;21008;-73
2022/10/07 11:21:29;;;;;;;5.70;2.57;;;15.40;94.90;;;;;;4925249;29;20926;-73
2022/10/07 11:24:16;;;;;;;5.20;2.60;;;15.40;94.90;;;;;;4900951;29;20477;-73
2022/10/07 11:26:52;;;;;;;6.47;2.47;;;15.40;94.80;;;;;;4921209;29;20543;-72
2022/10/07 11:29:35;;;;;;;5.73;2.43;;;15.40;94.80;;;;;;4932474;29;20516;-74
2022/10/07 11:32:28;;;;;;;5.70;1.97;;;15.50;94.80;;;;;;4920044;29;20432;-75
2022/10/07 11:35:24;;;;;;;7.97;2.37;;;15.50;94.80;;;;;;4903903;29;21302;-72
2022/10/07 11:38:14;;;;;;;6.33;2.60;;;15.50;94.80;;;;;;4919500;29;20448;-72
2022/10/07 11:40:56;;;;;;;7.17;1.83;;;15.50;94.70;;;;;;4893838;29;20446;-72
2022/10/07 11:43:45;;;;;;;6.23;2.00;;;15.60;94.70;;;;;;4933546;29;20426;-73
2022/10/07 11:46:39;;;;;;;7.67;2.10;;;15.60;94.60;;;;;;4936511;29;20455;-73
2022/10/07 11:49:20;;;;;;;4.30;1.93;;;15.60;94.60;;;;;;4931733;29;20425;-72
2022/10/07 11:52:08;;;;;;;10.07;3.20;;;15.60;94.50;;;;;;4899697;29;20517;-73
2022/10/07 11:54:50;;;;;;;5.50;1.97;;;15.70;94.50;;;;;;4899355;29;20529;-72
2022/10/07 11:57:31;;;;;;;5.33;1.90;;;15.70;94.40;;;;;;4927799;29;20445;-72
2022/10/07 12:00:07;;;;;;;10.20;2.10;;;15.70;94.30;;;;;;4909160;29;20458;-73
2022/10/07 12:02:46;;;;;;;7.20;2.07;;;15.70;94.20;;;;;;4915001;29;20411;-73
2022/10/07 12:05:34;;;;;;;7.27;2.63;;;15.80;94.20;;;;;;4929383;29;20436;-72
2022/10/07 12:08:09;;;;;;;7.13;2.23;;;15.80;94.10;;;;;;4888329;29;20501;-78
2022/10/07 12:10:38;;;;;;;6.20;2.07;;;15.80;94.10;;;;;;4929057;29;20438;-77
2022/10/07 12:13:09;;;;;;;13.37;3.73;;;15.80;94.10;;;;;;4934187;29;20462;-78
2022/10/07 12:15:43;;;;;;;4.07;1.67;;;15.90;94.00;;;;;;4916837;29;20830;-77
2022/10/07 12:18:30;;;;;;;5.33;1.70;;;15.90;94.00;;;;;;4934461;29;20555;-78
2022/10/07 12:21:03;;;;;;;5.10;2.10;;;15.90;93.90;;;;;;4898807;29;20497;-78
2022/10/07 12:23:36;;;;;;;7.10;2.87;;;15.90;93.80;;;;;;4934495;29;20458;-77
2022/10/07 12:26:31;;;;;;;6.80;2.10;;;16.00;93.90;;;;;;4904344;29;20496;-76
2022/10/07 12:29:00;;;;;;;8.90;2.30;;;16.00;93.90;;;;;;4929629;29;20854;-77
2022/10/07 12:31:32;;;;;;;6.20;1.90;;;16.00;93.90;;;;;;4931202;29;20429;-76
2022/10/07 12:34:09;;;;;;;5.07;1.87;;;16.00;93.80;;;;;;4918731;29;20475;-77
2022/10/07 12:36:41;;;;;;;6.20;2.27;;;16.00;93.80;;;;;;4931392;29;20467;-75
2022/10/07 12:39:08;;;;;;;7.67;1.93;;;16.10;93.80;;;;;;4929118;29;20867;-76
2022/10/07 12:41:41;;;;;;;7.93;2.70;;;16.10;93.70;;;;;;4917308;29;20422;-76
2022/10/07 12:44:22;;;;;;;6.10;2.00;;;16.10;94.00;;;;;;4900797;29;20447;-76
2022/10/07 12:47:09;;;;;;;8.47;1.83;;;16.10;93.60;;;;;;4900918;29;20458;-77
2022/10/07 12:49:48;;;;;;;6.40;2.43;;;16.10;93.50;;;;;;4918126;29;20553;-75
2022/10/07 12:52:30;;;;;;;8.33;2.00;;;16.20;93.50;;;;;;4918460;29;20472;-76
2022/10/07 12:55:06;;;;;;;13.30;2.57;;;16.20;93.50;;;;;;4933631;29;20461;-75
2022/10/07 12:57:34;;;;;;;6.73;2.03;;;16.20;93.50;;;;;;4933079;29;20481;-77
2022/10/07 13:00:10;;;;;;;7.20;2.20;;;16.20;93.40;;;;;;4936356;29;20764;-76
2022/10/07 13:03:15;;;;;;;10.20;3.10;;;16.30;93.50;;;;;;4902051;29;20613;-76
2022/10/07 13:06:27;;;;;;;7.07;2.27;;;16.20;93.30;;;;;;4918769;29;20526;-74
2022/10/07 13:09:02;;;;;;;8.00;2.60;;;16.30;93.30;;;;;;4909981;29;20452;-72
2022/10/07 13:12:02;;;;;;;4.13;1.60;;;16.30;93.30;;;;;;4929538;29;20779;-73
2022/10/07 13:14:47;;;;;;;9.10;2.10;;;16.30;93.20;;;;;;4914091;29;20487;-72
2022/10/07 13:17:27;;;;;;;7.40;2.17;;;16.30;93.10;;;;;;4928557;29;20500;-72
2022/10/07 13:20:11;;;;;;;6.93;2.03;;;16.30;93.10;;;;;;4930855;29;20452;-71
2022/10/07 13:22:47;;;;;;;5.33;2.17;;;16.40;93.10;;;;;;4921594;29;20907;-72
2022/10/07 13:25:19;;;;;;;4.43;1.77;;;16.40;93.10;;;;;;4926594;29;20433;-72
2022/10/07 13:27:59;;;;;;;4.60;2.00;;;16.40;93.10;;;;;;4928833;29;20813;-72
2022/10/07 13:30:40;;;;;;;5.93;1.87;;;16.40;93.00;;;;;;4916071;29;20452;-72